sensor_id;sensor_type;location;lat;lon;timestamp;pressure;altitude;pressure_sealevel;temperature;humidity
57232;BME280;43488;46.934;8.276;2022-07-17T00:00:44;97112.34;;;20.08;58.42
57232;BME280;43488;46.934;8.276;2022-07-17T00:03:12;97111.00;;;20.05;58.32
57232;BME280;43488;46.934;8.276;2022-07-17T00:05:42;97116.09;;;20.07;57.62
57232;BME280;43488;46.934;8.276;2022-07-17T00:08:11;97107.22;;;20.01;57.69
57232;BME280;43488;46.934;8.276;2022-07-17T00:10:41;97107.53;;;20.05;57.08
57232;BME280;43488;46.934;8.276;2022-07-17T00:13:10;97111.72;;;19.96;58.05
57232;BME280;43488;46.934;8.276;2022-07-17T00:15:37;97116.00;;;19.97;56.86
57232;BME280;43488;46.934;8.276;2022-07-17T00:18:05;97106.41;;;20.01;56.38
57232;BME280;43488;46.934;8.276;2022-07-17T00:20:34;97114.38;;;19.96;57.10
57232;BME280;43488;46.934;8.276;2022-07-17T00:23:02;97119.72;;;19.96;57.32
57232;BME280;43488;46.934;8.276;2022-07-17T00:25:29;97114.88;;;19.93;57.64
57232;BME280;43488;46.934;8.276;2022-07-17T00:27:56;97115.19;;;19.96;57.15
57232;BME280;43488;46.934;8.276;2022-07-17T00:30:24;97113.00;;;19.93;57.45
57232;BME280;43488;46.934;8.276;2022-07-17T00:32:51;97127.38;;;19.87;57.30
57232;BME280;43488;46.934;8.276;2022-07-17T00:35:18;97123.03;;;19.81;57.43
57232;BME280;43488;46.934;8.276;2022-07-17T00:37:47;97120.38;;;19.81;57.83
57232;BME280;43488;46.934;8.276;2022-07-17T00:40:20;97130.69;;;19.72;58.23
57232;BME280;43488;46.934;8.276;2022-07-17T00:42:49;97130.28;;;19.58;58.64
57232;BME280;43488;46.934;8.276;2022-07-17T00:45:17;97130.03;;;19.60;58.41
57232;BME280;43488;46.934;8.276;2022-07-17T00:48:00;97133.19;;;19.57;58.45
57232;BME280;43488;46.934;8.276;2022-07-17T00:50:38;97136.31;;;19.54;58.65
57232;BME280;43488;46.934;8.276;2022-07-17T00:53:07;97133.66;;;19.54;58.95
57232;BME280;43488;46.934;8.276;2022-07-17T00:55:35;97133.03;;;19.47;58.95
57232;BME280;43488;46.934;8.276;2022-07-17T00:58:04;97128.81;;;19.51;58.79
57232;BME280;43488;46.934;8.276;2022-07-17T01:00:36;97130.59;;;19.45;58.98
57232;BME280;43488;46.934;8.276;2022-07-17T01:03:03;97131.75;;;19.49;58.98
57232;BME280;43488;46.934;8.276;2022-07-17T01:05:31;97136.72;;;19.41;59.46
57232;BME280;43488;46.934;8.276;2022-07-17T01:07:59;97145.28;;;19.43;59.54
57232;BME280;43488;46.934;8.276;2022-07-17T01:10:27;97143.81;;;19.35;59.66
57232;BME280;43488;46.934;8.276;2022-07-17T01:12:54;97144.25;;;19.27;59.80
57232;BME280;43488;46.934;8.276;2022-07-17T01:15:22;97135.56;;;19.15;60.03
57232;BME280;43488;46.934;8.276;2022-07-17T01:17:51;97137.41;;;19.14;60.32
57232;BME280;43488;46.934;8.276;2022-07-17T01:20:19;97133.56;;;19.05;60.57
57232;BME280;43488;46.934;8.276;2022-07-17T01:22:50;97139.56;;;18.95;60.60
57232;BME280;43488;46.934;8.276;2022-07-17T01:25:22;97144.91;;;18.79;61.18
57232;BME280;43488;46.934;8.276;2022-07-17T01:27:50;97147.28;;;18.75;61.55
57232;BME280;43488;46.934;8.276;2022-07-17T01:30:18;97138.38;;;18.69;61.51
57232;BME280;43488;46.934;8.276;2022-07-17T01:32:46;97140.38;;;18.79;61.51
57232;BME280;43488;46.934;8.276;2022-07-17T01:35:14;97136.91;;;18.79;61.55
57232;BME280;43488;46.934;8.276;2022-07-17T01:37:43;97139.16;;;18.87;61.20
57232;BME280;43488;46.934;8.276;2022-07-17T01:40:13;97139.31;;;18.80;61.27
57232;BME280;43488;46.934;8.276;2022-07-17T01:42:47;97136.75;;;18.68;61.59
57232;BME280;43488;46.934;8.276;2022-07-17T01:45:17;97134.78;;;18.64;61.50
57232;BME280;43488;46.934;8.276;2022-07-17T01:47:46;97140.91;;;18.64;61.49
57232;BME280;43488;46.934;8.276;2022-07-17T01:50:14;97138.25;;;18.64;61.79
57232;BME280;43488;46.934;8.276;2022-07-17T01:52:44;97136.06;;;18.61;62.10
57232;BME280;43488;46.934;8.276;2022-07-17T01:55:15;97134.59;;;18.65;62.17
57232;BME280;43488;46.934;8.276;2022-07-17T01:57:43;97139.69;;;18.55;62.11
57232;BME280;43488;46.934;8.276;2022-07-17T02:00:15;97136.81;;;18.57;61.67
57232;BME280;43488;46.934;8.276;2022-07-17T02:02:44;97142.69;;;18.42;62.58
57232;BME280;43488;46.934;8.276;2022-07-17T02:05:12;97140.19;;;18.52;62.44
57232;BME280;43488;46.934;8.276;2022-07-17T02:07:39;97142.31;;;18.50;62.46
57232;BME280;43488;46.934;8.276;2022-07-17T02:10:08;97148.97;;;18.36;62.95
57232;BME280;43488;46.934;8.276;2022-07-17T02:12:36;97149.47;;;18.33;63.24
57232;BME280;43488;46.934;8.276;2022-07-17T02:15:05;97143.25;;;18.44;63.03
57232;BME280;43488;46.934;8.276;2022-07-17T02:17:33;97145.25;;;18.37;62.09
57232;BME280;43488;46.934;8.276;2022-07-17T02:20:00;97136.16;;;18.33;61.57
57232;BME280;43488;46.934;8.276;2022-07-17T02:22:29;97143.09;;;18.34;61.70
57232;BME280;43488;46.934;8.276;2022-07-17T02:24:56;97136.72;;;18.35;60.96
57232;BME280;43488;46.934;8.276;2022-07-17T02:27:24;97137.75;;;18.34;60.53
57232;BME280;43488;46.934;8.276;2022-07-17T02:29:51;97141.56;;;18.38;59.94
57232;BME280;43488;46.934;8.276;2022-07-17T02:32:18;97132.75;;;18.37;60.10
57232;BME280;43488;46.934;8.276;2022-07-17T02:34:45;97135.03;;;18.29;60.93
57232;BME280;43488;46.934;8.276;2022-07-17T02:37:13;97125.97;;;18.30;61.45
57232;BME280;43488;46.934;8.276;2022-07-17T02:39:40;97127.03;;;18.29;61.77
57232;BME280;43488;46.934;8.276;2022-07-17T02:42:21;97119.09;;;18.34;61.63
57232;BME280;43488;46.934;8.276;2022-07-17T02:44:50;97120.41;;;18.31;61.54
57232;BME280;43488;46.934;8.276;2022-07-17T02:47:29;97129.22;;;18.32;60.99
57232;BME280;43488;46.934;8.276;2022-07-17T02:49:58;97115.06;;;18.31;61.06
57232;BME280;43488;46.934;8.276;2022-07-17T02:52:25;97123.06;;;18.31;60.79
57232;BME280;43488;46.934;8.276;2022-07-17T02:54:54;97122.03;;;18.32;60.91
57232;BME280;43488;46.934;8.276;2022-07-17T02:57:21;97117.88;;;18.25;61.46
57232;BME280;43488;46.934;8.276;2022-07-17T02:59:49;97120.25;;;18.21;62.01
57232;BME280;43488;46.934;8.276;2022-07-17T03:02:17;97118.13;;;18.23;61.32
57232;BME280;43488;46.934;8.276;2022-07-17T03:04:45;97114.56;;;18.17;61.22
57232;BME280;43488;46.934;8.276;2022-07-17T03:07:13;97120.13;;;18.16;61.29
57232;BME280;43488;46.934;8.276;2022-07-17T03:09:41;97108.66;;;18.15;61.25
57232;BME280;43488;46.934;8.276;2022-07-17T03:12:09;97106.16;;;18.09;62.15
57232;BME280;43488;46.934;8.276;2022-07-17T03:14:37;97106.03;;;17.87;63.90
57232;BME280;43488;46.934;8.276;2022-07-17T03:17:05;97109.50;;;17.87;63.78
57232;BME280;43488;46.934;8.276;2022-07-17T03:19:33;97119.91;;;17.89;64.05
57232;BME280;43488;46.934;8.276;2022-07-17T03:22:00;97111.69;;;17.90;63.36
57232;BME280;43488;46.934;8.276;2022-07-17T03:24:28;97116.13;;;17.85;63.06
57232;BME280;43488;46.934;8.276;2022-07-17T03:26:55;97120.88;;;17.83;63.17
57232;BME280;43488;46.934;8.276;2022-07-17T03:29:23;97115.78;;;17.81;63.35
57232;BME280;43488;46.934;8.276;2022-07-17T03:31:51;97113.38;;;17.80;62.76
57232;BME280;43488;46.934;8.276;2022-07-17T03:34:18;97119.63;;;17.74;62.97
57232;BME280;43488;46.934;8.276;2022-07-17T03:36:45;97108.53;;;17.77;62.30
57232;BME280;43488;46.934;8.276;2022-07-17T03:39:14;97112.66;;;17.84;62.72
57232;BME280;43488;46.934;8.276;2022-07-17T03:41:41;97107.53;;;17.83;63.14
57232;BME280;43488;46.934;8.276;2022-07-17T03:44:09;97114.97;;;17.81;62.85
57232;BME280;43488;46.934;8.276;2022-07-17T03:46:37;97113.84;;;17.77;62.86
57232;BME280;43488;46.934;8.276;2022-07-17T03:49:04;97115.34;;;17.73;62.90
57232;BME280;43488;46.934;8.276;2022-07-17T03:51:32;97111.78;;;17.67;62.92
57232;BME280;43488;46.934;8.276;2022-07-17T03:53:59;97112.59;;;17.68;63.05
57232;BME280;43488;46.934;8.276;2022-07-17T03:56:27;97108.91;;;17.57;64.71
57232;BME280;43488;46.934;8.276;2022-07-17T03:58:54;97113.28;;;17.63;64.37
57232;BME280;43488;46.934;8.276;2022-07-17T04:01:21;97112.59;;;17.68;64.28
57232;BME280;43488;46.934;8.276;2022-07-17T04:03:49;97112.72;;;17.61;64.45
57232;BME280;43488;46.934;8.276;2022-07-17T04:06:16;97108.44;;;17.60;64.44
57232;BME280;43488;46.934;8.276;2022-07-17T04:08:43;97109.81;;;17.62;64.33
57232;BME280;43488;46.934;8.276;2022-07-17T04:11:11;97115.94;;;17.63;64.25
57232;BME280;43488;46.934;8.276;2022-07-17T04:13:38;97112.47;;;17.62;64.03
57232;BME280;43488;46.934;8.276;2022-07-17T04:16:06;97114.44;;;17.55;64.36
57232;BME280;43488;46.934;8.276;2022-07-17T04:18:35;97112.50;;;17.51;65.01
57232;BME280;43488;46.934;8.276;2022-07-17T04:21:07;97114.25;;;17.57;64.83
57232;BME280;43488;46.934;8.276;2022-07-17T04:23:37;97119.22;;;17.53;64.80
57232;BME280;43488;46.934;8.276;2022-07-17T04:26:05;97112.03;;;17.54;64.09
57232;BME280;43488;46.934;8.276;2022-07-17T04:28:34;97131.47;;;17.54;63.48
57232;BME280;43488;46.934;8.276;2022-07-17T04:31:02;97124.28;;;17.55;63.95
57232;BME280;43488;46.934;8.276;2022-07-17T04:33:29;97123.94;;;17.63;63.84
57232;BME280;43488;46.934;8.276;2022-07-17T04:35:56;97130.66;;;17.66;63.53
57232;BME280;43488;46.934;8.276;2022-07-17T04:38:23;97123.81;;;17.70;63.73
57232;BME280;43488;46.934;8.276;2022-07-17T04:40:51;97129.16;;;17.70;62.89
57232;BME280;43488;46.934;8.276;2022-07-17T04:43:18;97121.38;;;17.68;63.09
57232;BME280;43488;46.934;8.276;2022-07-17T04:45:46;97122.91;;;17.52;63.95
57232;BME280;43488;46.934;8.276;2022-07-17T04:48:13;97120.06;;;17.42;64.62
57232;BME280;43488;46.934;8.276;2022-07-17T04:50:41;97124.44;;;17.48;65.25
57232;BME280;43488;46.934;8.276;2022-07-17T04:53:08;97117.34;;;17.66;64.53
57232;BME280;43488;46.934;8.276;2022-07-17T04:55:35;97127.06;;;17.72;64.22
57232;BME280;43488;46.934;8.276;2022-07-17T04:58:04;97125.63;;;17.81;64.06
57232;BME280;43488;46.934;8.276;2022-07-17T05:00:31;97122.59;;;17.89;63.87
57232;BME280;43488;46.934;8.276;2022-07-17T05:02:58;97130.09;;;17.92;64.13
57232;BME280;43488;46.934;8.276;2022-07-17T05:05:26;97123.25;;;17.96;64.39
57232;BME280;43488;46.934;8.276;2022-07-17T05:07:53;97117.59;;;17.93;65.01
57232;BME280;43488;46.934;8.276;2022-07-17T05:10:20;97123.88;;;17.86;64.97
57232;BME280;43488;46.934;8.276;2022-07-17T05:12:48;97125.25;;;17.89;65.25
57232;BME280;43488;46.934;8.276;2022-07-17T05:15:15;97124.97;;;18.02;65.55
57232;BME280;43488;46.934;8.276;2022-07-17T05:17:43;97125.03;;;18.07;66.87
57232;BME280;43488;46.934;8.276;2022-07-17T05:20:11;97132.41;;;18.17;67.17
57232;BME280;43488;46.934;8.276;2022-07-17T05:22:39;97134.94;;;18.24;67.03
57232;BME280;43488;46.934;8.276;2022-07-17T05:25:08;97138.16;;;18.26;68.20
57232;BME280;43488;46.934;8.276;2022-07-17T05:27:35;97137.19;;;18.32;68.31
57232;BME280;43488;46.934;8.276;2022-07-17T05:30:03;97128.16;;;18.33;66.55
57232;BME280;43488;46.934;8.276;2022-07-17T05:32:31;97137.28;;;18.37;66.53
57232;BME280;43488;46.934;8.276;2022-07-17T05:34:58;97130.44;;;18.41;66.34
57232;BME280;43488;46.934;8.276;2022-07-17T05:37:25;97132.19;;;18.52;65.37
57232;BME280;43488;46.934;8.276;2022-07-17T05:39:52;97135.16;;;18.67;64.12
57232;BME280;43488;46.934;8.276;2022-07-17T05:42:20;97123.47;;;18.73;63.51
57232;BME280;43488;46.934;8.276;2022-07-17T05:44:47;97135.94;;;18.85;64.45
57232;BME280;43488;46.934;8.276;2022-07-17T05:47:15;97129.69;;;18.96;66.03
57232;BME280;43488;46.934;8.276;2022-07-17T05:49:42;97125.06;;;19.08;65.07
57232;BME280;43488;46.934;8.276;2022-07-17T05:52:09;97124.38;;;19.18;64.33
57232;BME280;43488;46.934;8.276;2022-07-17T05:54:38;97119.94;;;19.23;65.64
57232;BME280;43488;46.934;8.276;2022-07-17T05:57:05;97122.66;;;19.28;64.09
57232;BME280;43488;46.934;8.276;2022-07-17T05:59:32;97121.66;;;19.35;63.76
57232;BME280;43488;46.934;8.276;2022-07-17T06:02:00;97120.34;;;19.37;60.96
57232;BME280;43488;46.934;8.276;2022-07-17T06:04:28;97117.25;;;19.45;59.92
57232;BME280;43488;46.934;8.276;2022-07-17T06:06:56;97122.28;;;19.42;61.62
57232;BME280;43488;46.934;8.276;2022-07-17T06:09:24;97125.09;;;19.52;61.36
57232;BME280;43488;46.934;8.276;2022-07-17T06:11:51;97128.16;;;19.60;60.16
57232;BME280;43488;46.934;8.276;2022-07-17T06:14:19;97118.66;;;19.70;59.56
57232;BME280;43488;46.934;8.276;2022-07-17T06:16:46;97128.00;;;19.72;58.72
57232;BME280;43488;46.934;8.276;2022-07-17T06:19:14;97115.81;;;19.81;57.93
57232;BME280;43488;46.934;8.276;2022-07-17T06:21:41;97121.53;;;19.90;57.97
57232;BME280;43488;46.934;8.276;2022-07-17T06:24:09;97120.53;;;19.96;57.90
57232;BME280;43488;46.934;8.276;2022-07-17T06:26:36;97115.75;;;19.98;57.47
57232;BME280;43488;46.934;8.276;2022-07-17T06:29:04;97120.38;;;20.08;57.79
57232;BME280;43488;46.934;8.276;2022-07-17T06:31:31;97123.41;;;20.16;57.63
57232;BME280;43488;46.934;8.276;2022-07-17T06:33:58;97128.00;;;20.21;58.15
57232;BME280;43488;46.934;8.276;2022-07-17T06:36:25;97130.69;;;20.26;57.96
57232;BME280;43488;46.934;8.276;2022-07-17T06:38:53;97138.53;;;20.33;58.81
57232;BME280;43488;46.934;8.276;2022-07-17T06:41:20;97136.69;;;20.38;58.20
57232;BME280;43488;46.934;8.276;2022-07-17T06:43:48;97139.44;;;20.43;57.79
57232;BME280;43488;46.934;8.276;2022-07-17T06:46:15;97136.81;;;20.49;57.98
57232;BME280;43488;46.934;8.276;2022-07-17T06:48:43;97138.19;;;20.56;57.50
57232;BME280;43488;46.934;8.276;2022-07-17T06:51:10;97142.75;;;20.56;56.69
57232;BME280;43488;46.934;8.276;2022-07-17T06:53:37;97139.34;;;20.65;56.75
57232;BME280;43488;46.934;8.276;2022-07-17T06:56:05;97142.28;;;20.64;56.11
57232;BME280;43488;46.934;8.276;2022-07-17T06:58:32;97143.16;;;20.74;55.45
57232;BME280;43488;46.934;8.276;2022-07-17T07:00:59;97141.34;;;20.80;55.38
57232;BME280;43488;46.934;8.276;2022-07-17T07:03:26;97147.03;;;20.89;55.71
57232;BME280;43488;46.934;8.276;2022-07-17T07:05:54;97139.59;;;20.96;55.13
57232;BME280;43488;46.934;8.276;2022-07-17T07:08:22;97139.13;;;21.09;54.44
57232;BME280;43488;46.934;8.276;2022-07-17T07:10:50;97139.97;;;21.20;53.72
57232;BME280;43488;46.934;8.276;2022-07-17T07:13:18;97137.91;;;21.27;54.09
57232;BME280;43488;46.934;8.276;2022-07-17T07:15:45;97147.63;;;21.01;53.11
57232;BME280;43488;46.934;8.276;2022-07-17T07:18:13;97143.22;;;21.22;52.90
57232;BME280;43488;46.934;8.276;2022-07-17T07:20:41;97140.88;;;21.31;51.90
57232;BME280;43488;46.934;8.276;2022-07-17T07:23:08;97139.56;;;21.33;52.17
57232;BME280;43488;46.934;8.276;2022-07-17T07:25:35;97144.94;;;21.43;52.10
57232;BME280;43488;46.934;8.276;2022-07-17T07:28:04;97146.28;;;21.41;51.25
57232;BME280;43488;46.934;8.276;2022-07-17T07:30:31;97146.88;;;21.53;50.71
57232;BME280;43488;46.934;8.276;2022-07-17T07:32:58;97147.72;;;21.58;51.49
57232;BME280;43488;46.934;8.276;2022-07-17T07:35:25;97153.56;;;21.55;51.23
57232;BME280;43488;46.934;8.276;2022-07-17T07:38:00;97162.75;;;21.75;51.13
57232;BME280;43488;46.934;8.276;2022-07-17T07:40:27;97152.59;;;21.82;50.27
57232;BME280;43488;46.934;8.276;2022-07-17T07:42:55;97153.13;;;21.84;50.85
57232;BME280;43488;46.934;8.276;2022-07-17T07:45:22;97162.31;;;21.98;49.93
57232;BME280;43488;46.934;8.276;2022-07-17T07:47:50;97155.63;;;22.06;50.16
57232;BME280;43488;46.934;8.276;2022-07-17T07:50:21;97159.94;;;22.12;50.12
57232;BME280;43488;46.934;8.276;2022-07-17T07:52:48;97167.44;;;22.05;50.02
57232;BME280;43488;46.934;8.276;2022-07-17T07:55:16;97163.09;;;21.94;49.96
57232;BME280;43488;46.934;8.276;2022-07-17T07:57:43;97165.78;;;21.99;50.48
57232;BME280;43488;46.934;8.276;2022-07-17T08:00:11;97171.41;;;22.02;49.60
57232;BME280;43488;46.934;8.276;2022-07-17T08:02:39;97176.53;;;22.04;49.51
57232;BME280;43488;46.934;8.276;2022-07-17T08:05:07;97176.84;;;22.18;48.29
57232;BME280;43488;46.934;8.276;2022-07-17T08:07:36;97169.34;;;22.20;48.63
57232;BME280;43488;46.934;8.276;2022-07-17T08:10:04;97167.13;;;22.01;49.90
57232;BME280;43488;46.934;8.276;2022-07-17T08:12:32;97170.13;;;22.10;49.46
57232;BME280;43488;46.934;8.276;2022-07-17T08:14:59;97173.88;;;22.09;50.15
57232;BME280;43488;46.934;8.276;2022-07-17T08:17:26;97171.75;;;22.16;49.96
57232;BME280;43488;46.934;8.276;2022-07-17T08:19:54;97168.84;;;22.23;49.79
57232;BME280;43488;46.934;8.276;2022-07-17T08:22:21;97169.38;;;22.25;49.70
57232;BME280;43488;46.934;8.276;2022-07-17T08:24:49;97178.75;;;22.37;48.36
57232;BME280;43488;46.934;8.276;2022-07-17T08:27:16;97175.28;;;22.32;46.86
57232;BME280;43488;46.934;8.276;2022-07-17T08:29:44;97175.03;;;22.43;48.29
57232;BME280;43488;46.934;8.276;2022-07-17T08:32:12;97179.84;;;22.57;48.04
57232;BME280;43488;46.934;8.276;2022-07-17T08:34:39;97176.09;;;22.53;47.71
57232;BME280;43488;46.934;8.276;2022-07-17T08:37:06;97181.72;;;22.56;46.03
57232;BME280;43488;46.934;8.276;2022-07-17T08:39:34;97185.22;;;22.57;49.22
57232;BME280;43488;46.934;8.276;2022-07-17T08:42:03;97186.56;;;22.75;48.56
57232;BME280;43488;46.934;8.276;2022-07-17T08:44:30;97182.28;;;22.79;48.06
57232;BME280;43488;46.934;8.276;2022-07-17T08:47:00;97181.22;;;22.85;48.17
57232;BME280;43488;46.934;8.276;2022-07-17T08:49:28;97179.38;;;22.95;48.00
57232;BME280;43488;46.934;8.276;2022-07-17T08:51:57;97178.56;;;22.90;47.30
57232;BME280;43488;46.934;8.276;2022-07-17T08:54:25;97179.34;;;22.85;46.66
57232;BME280;43488;46.934;8.276;2022-07-17T08:56:52;97189.56;;;22.98;48.44
57232;BME280;43488;46.934;8.276;2022-07-17T08:59:19;97183.38;;;23.08;47.38
57232;BME280;43488;46.934;8.276;2022-07-17T09:01:47;97179.06;;;23.17;47.23
57232;BME280;43488;46.934;8.276;2022-07-17T09:04:16;97181.47;;;23.24;46.63
57232;BME280;43488;46.934;8.276;2022-07-17T09:06:44;97180.66;;;23.23;47.75
57232;BME280;43488;46.934;8.276;2022-07-17T09:09:13;97183.06;;;23.30;47.66
57232;BME280;43488;46.934;8.276;2022-07-17T09:11:46;97183.31;;;23.28;46.09
57232;BME280;43488;46.934;8.276;2022-07-17T09:14:14;97182.78;;;23.37;46.25
57232;BME280;43488;46.934;8.276;2022-07-17T09:16:54;97180.63;;;23.39;45.43
57232;BME280;43488;46.934;8.276;2022-07-17T09:19:36;97187.88;;;23.43;45.88
57232;BME280;43488;46.934;8.276;2022-07-17T09:22:19;97181.94;;;23.46;47.58
57232;BME280;43488;46.934;8.276;2022-07-17T09:24:56;97180.03;;;23.57;46.99
57232;BME280;43488;46.934;8.276;2022-07-17T09:30:08;97173.81;;;23.72;47.29
57232;BME280;43488;46.934;8.276;2022-07-17T09:32:39;97175.72;;;23.66;47.09
57232;BME280;43488;46.934;8.276;2022-07-17T09:35:09;97175.72;;;23.56;48.75
57232;BME280;43488;46.934;8.276;2022-07-17T09:37:38;97184.06;;;23.54;47.56
57232;BME280;43488;46.934;8.276;2022-07-17T09:40:10;97181.38;;;23.70;49.44
57232;BME280;43488;46.934;8.276;2022-07-17T09:42:38;97175.19;;;23.64;47.61
57232;BME280;43488;46.934;8.276;2022-07-17T09:45:09;97176.75;;;23.80;47.13
57232;BME280;43488;46.934;8.276;2022-07-17T09:47:38;97173.72;;;23.92;46.37
57232;BME280;43488;46.934;8.276;2022-07-17T09:50:08;97183.13;;;23.95;48.12
57232;BME280;43488;46.934;8.276;2022-07-17T09:52:37;97177.16;;;24.03;45.45
57232;BME280;43488;46.934;8.276;2022-07-17T09:55:06;97179.25;;;24.16;45.87
57232;BME280;43488;46.934;8.276;2022-07-17T09:57:34;97168.25;;;24.12;46.21
57232;BME280;43488;46.934;8.276;2022-07-17T10:00:06;97171.16;;;24.21;45.81
57232;BME280;43488;46.934;8.276;2022-07-17T10:02:41;97163.59;;;24.33;45.54
57232;BME280;43488;46.934;8.276;2022-07-17T10:05:14;97170.53;;;24.39;46.57
57232;BME280;43488;46.934;8.276;2022-07-17T10:07:43;97175.28;;;24.53;45.95
57232;BME280;43488;46.934;8.276;2022-07-17T10:10:15;97162.31;;;24.60;46.09
57232;BME280;43488;46.934;8.276;2022-07-17T10:12:46;97169.53;;;24.64;45.60
57232;BME280;43488;46.934;8.276;2022-07-17T10:15:14;97161.09;;;24.76;45.45
57232;BME280;43488;46.934;8.276;2022-07-17T10:17:42;97164.28;;;24.83;45.63
57232;BME280;43488;46.934;8.276;2022-07-17T10:20:10;97161.56;;;24.83;45.08
57232;BME280;43488;46.934;8.276;2022-07-17T10:22:44;97161.00;;;24.86;44.01
57232;BME280;43488;46.934;8.276;2022-07-17T10:25:15;97157.75;;;24.89;44.22
57232;BME280;43488;46.934;8.276;2022-07-17T10:27:54;97165.19;;;25.03;44.26
57232;BME280;43488;46.934;8.276;2022-07-17T10:30:29;97160.88;;;25.07;43.97
57232;BME280;43488;46.934;8.276;2022-07-17T10:33:04;97158.09;;;25.12;43.90
57232;BME280;43488;46.934;8.276;2022-07-17T10:35:45;97165.53;;;25.25;44.25
57232;BME280;43488;46.934;8.276;2022-07-17T10:38:14;97157.88;;;25.32;43.38
57232;BME280;43488;46.934;8.276;2022-07-17T10:40:43;97168.00;;;25.45;43.42
57232;BME280;43488;46.934;8.276;2022-07-17T10:43:11;97164.09;;;25.57;44.45
57232;BME280;43488;46.934;8.276;2022-07-17T10:45:41;97164.09;;;25.57;42.84
57232;BME280;43488;46.934;8.276;2022-07-17T10:48:19;97169.06;;;25.73;43.74
57232;BME280;43488;46.934;8.276;2022-07-17T10:56:06;97157.72;;;26.14;43.38
57232;BME280;43488;46.934;8.276;2022-07-17T11:01:13;97159.63;;;26.70;43.14
57232;BME280;43488;46.934;8.276;2022-07-17T11:03:53;97162.53;;;27.06;41.05
57232;BME280;43488;46.934;8.276;2022-07-17T11:06:27;97158.06;;;27.29;40.67
57232;BME280;43488;46.934;8.276;2022-07-17T11:09:09;97163.69;;;27.46;40.85
57232;BME280;43488;46.934;8.276;2022-07-17T11:11:44;97160.59;;;27.67;40.25
57232;BME280;43488;46.934;8.276;2022-07-17T11:14:20;97164.13;;;27.81;39.66
57232;BME280;43488;46.934;8.276;2022-07-17T11:16:51;97173.50;;;27.97;39.27
57232;BME280;43488;46.934;8.276;2022-07-17T11:22:04;97167.56;;;28.09;38.40
57232;BME280;43488;46.934;8.276;2022-07-17T11:24:44;97170.06;;;28.05;37.82
57232;BME280;43488;46.934;8.276;2022-07-17T11:27:24;97169.44;;;27.72;38.66
57232;BME280;43488;46.934;8.276;2022-07-17T11:29:56;97169.81;;;27.66;38.42
57232;BME280;43488;46.934;8.276;2022-07-17T11:32:31;97158.00;;;27.62;38.36
57232;BME280;43488;46.934;8.276;2022-07-17T11:34:58;97160.00;;;27.70;39.93
57232;BME280;43488;46.934;8.276;2022-07-17T11:37:29;97150.38;;;27.77;38.89
57232;BME280;43488;46.934;8.276;2022-07-17T11:39:58;97158.50;;;27.77;39.14
57232;BME280;43488;46.934;8.276;2022-07-17T11:42:26;97155.19;;;27.81;39.19
57232;BME280;43488;46.934;8.276;2022-07-17T11:44:55;97158.00;;;27.75;38.44
57232;BME280;43488;46.934;8.276;2022-07-17T11:47:26;97154.81;;;27.73;39.09
57232;BME280;43488;46.934;8.276;2022-07-17T11:50:13;97157.78;;;27.86;38.81
57232;BME280;43488;46.934;8.276;2022-07-17T11:52:47;97156.19;;;27.85;37.87
57232;BME280;43488;46.934;8.276;2022-07-17T11:55:18;97157.56;;;27.96;39.83
57232;BME280;43488;46.934;8.276;2022-07-17T11:57:50;97160.88;;;27.93;37.26
57232;BME280;43488;46.934;8.276;2022-07-17T12:00:20;97156.69;;;27.87;37.69
57232;BME280;43488;46.934;8.276;2022-07-17T12:03:02;97146.34;;;27.89;38.49
57232;BME280;43488;46.934;8.276;2022-07-17T12:05:31;97153.88;;;27.92;37.41
57232;BME280;43488;46.934;8.276;2022-07-17T12:07:59;97148.66;;;27.95;37.33
57232;BME280;43488;46.934;8.276;2022-07-17T12:10:30;97147.53;;;28.10;37.08
57232;BME280;43488;46.934;8.276;2022-07-17T12:13:05;97154.94;;;28.18;36.96
57232;BME280;43488;46.934;8.276;2022-07-17T12:15:48;97148.41;;;28.19;37.22
57232;BME280;43488;46.934;8.276;2022-07-17T12:18:28;97141.06;;;28.33;37.64
57232;BME280;43488;46.934;8.276;2022-07-17T12:21:01;97133.94;;;28.38;37.10
57232;BME280;43488;46.934;8.276;2022-07-17T12:23:38;97134.00;;;28.46;37.22
57232;BME280;43488;46.934;8.276;2022-07-17T12:26:16;97129.50;;;28.42;36.84
57232;BME280;43488;46.934;8.276;2022-07-17T12:28:46;97126.38;;;28.48;36.83
57232;BME280;43488;46.934;8.276;2022-07-17T12:31:14;97130.56;;;28.54;36.77
57232;BME280;43488;46.934;8.276;2022-07-17T12:33:42;97133.50;;;28.67;37.17
57232;BME280;43488;46.934;8.276;2022-07-17T12:36:10;97133.06;;;28.73;36.42
57232;BME280;43488;46.934;8.276;2022-07-17T12:38:38;97127.72;;;28.82;36.94
57232;BME280;43488;46.934;8.276;2022-07-17T12:41:06;97115.50;;;28.71;36.06
57232;BME280;43488;46.934;8.276;2022-07-17T12:43:34;97119.91;;;28.80;35.92
57232;BME280;43488;46.934;8.276;2022-07-17T12:46:01;97119.50;;;28.96;36.51
57232;BME280;43488;46.934;8.276;2022-07-17T12:48:29;97117.47;;;29.01;35.79
57232;BME280;43488;46.934;8.276;2022-07-17T12:50:57;97113.81;;;29.06;35.82
57232;BME280;43488;46.934;8.276;2022-07-17T12:53:24;97109.59;;;29.22;36.43
57232;BME280;43488;46.934;8.276;2022-07-17T12:55:51;97113.09;;;29.23;34.74
57232;BME280;43488;46.934;8.276;2022-07-17T12:58:20;97112.19;;;29.27;35.62
57232;BME280;43488;46.934;8.276;2022-07-17T13:00:48;97112.66;;;29.29;35.58
57232;BME280;43488;46.934;8.276;2022-07-17T13:03:15;97117.13;;;29.34;35.69
57232;BME280;43488;46.934;8.276;2022-07-17T13:05:43;97116.66;;;29.32;35.88
57232;BME280;43488;46.934;8.276;2022-07-17T13:08:11;97107.41;;;29.33;35.15
57232;BME280;43488;46.934;8.276;2022-07-17T13:10:38;97107.09;;;29.34;35.42
57232;BME280;43488;46.934;8.276;2022-07-17T13:13:07;97108.06;;;29.38;35.75
57232;BME280;43488;46.934;8.276;2022-07-17T13:15:35;97102.19;;;29.45;36.55
57232;BME280;43488;46.934;8.276;2022-07-17T13:18:02;97104.56;;;29.38;35.85
57232;BME280;43488;46.934;8.276;2022-07-17T13:20:30;97106.97;;;29.48;35.40
57232;BME280;43488;46.934;8.276;2022-07-17T13:22:57;97099.03;;;29.52;36.01